sensor_id;sensor_type;location;lat;lon;timestamp;P1;durP1;ratioP1;P2;durP2;ratioP2
69534;SDS011;56754;51.568;5.048;2023-12-07T00:01:05;8.82;;;4.22;;
69534;SDS011;56754;51.568;5.048;2023-12-07T00:03:30;10.40;;;4.00;;
69534;SDS011;56754;51.568;5.048;2023-12-07T00:05:55;8.03;;;4.37;;
69534;SDS011;56754;51.568;5.048;2023-12-07T00:08:21;8.70;;;4.30;;
69534;SDS011;56754;51.568;5.048;2023-12-07T00:10:46;10.13;;;4.00;;
69534;SDS011;56754;51.568;5.048;2023-12-07T00:13:11;9.60;;;4.07;;
69534;SDS011;56754;51.568;5.048;2023-12-07T00:15:37;7.67;;;3.97;;
69534;SDS011;56754;51.568;5.048;2023-12-07T00:18:02;9.47;;;4.57;;
69534;SDS011;56754;51.568;5.048;2023-12-07T00:20:30;7.53;;;4.07;;
69534;SDS011;56754;51.568;5.048;2023-12-07T00:22:55;7.70;;;4.13;;
69534;SDS011;56754;51.568;5.048;2023-12-07T00:25:21;9.17;;;4.37;;
69534;SDS011;56754;51.568;5.048;2023-12-07T00:27:46;9.35;;;4.60;;
69534;SDS011;56754;51.568;5.048;2023-12-07T00:30:12;8.50;;;3.83;;
69534;SDS011;56754;51.568;5.048;2023-12-07T00:32:37;7.57;;;4.50;;
69534;SDS011;56754;51.568;5.048;2023-12-07T00:35:03;7.95;;;4.35;;
69534;SDS011;56754;51.568;5.048;2023-12-07T00:37:29;8.97;;;4.20;;
69534;SDS011;56754;51.568;5.048;2023-12-07T00:39:54;9.37;;;5.00;;
69534;SDS011;56754;51.568;5.048;2023-12-07T00:42:19;9.10;;;4.57;;
69534;SDS011;56754;51.568;5.048;2023-12-07T00:44:44;7.97;;;4.33;;
69534;SDS011;56754;51.568;5.048;2023-12-07T00:47:10;8.77;;;4.30;;
69534;SDS011;56754;51.568;5.048;2023-12-07T00:49:38;8.40;;;4.67;;
69534;SDS011;56754;51.568;5.048;2023-12-07T00:52:04;7.90;;;4.63;;
69534;SDS011;56754;51.568;5.048;2023-12-07T00:54:29;9.90;;;4.57;;
69534;SDS011;56754;51.568;5.048;2023-12-07T00:56:54;9.13;;;4.40;;
69534;SDS011;56754;51.568;5.048;2023-12-07T00:59:20;9.07;;;4.70;;
69534;SDS011;56754;51.568;5.048;2023-12-07T01:01:45;8.63;;;4.80;;
69534;SDS011;56754;51.568;5.048;2023-12-07T01:04:10;9.37;;;5.30;;
69534;SDS011;56754;51.568;5.048;2023-12-07T01:06:35;9.00;;;5.17;;
69534;SDS011;56754;51.568;5.048;2023-12-07T01:09:01;8.98;;;4.63;;
69534;SDS011;56754;51.568;5.048;2023-12-07T01:11:26;11.37;;;5.60;;
69534;SDS011;56754;51.568;5.048;2023-12-07T01:13:51;10.03;;;5.03;;
69534;SDS011;56754;51.568;5.048;2023-12-07T01:16:17;7.73;;;4.77;;
69534;SDS011;56754;51.568;5.048;2023-12-07T01:18:42;8.83;;;5.30;;
69534;SDS011;56754;51.568;5.048;2023-12-07T01:21:07;10.80;;;5.23;;
69534;SDS011;56754;51.568;5.048;2023-12-07T01:23:33;8.47;;;4.27;;
69534;SDS011;56754;51.568;5.048;2023-12-07T01:25:58;9.17;;;4.90;;
69534;SDS011;56754;51.568;5.048;2023-12-07T01:28:23;10.32;;;4.43;;
69534;SDS011;56754;51.568;5.048;2023-12-07T01:30:48;8.57;;;4.70;;
69534;SDS011;56754;51.568;5.048;2023-12-07T01:33:14;8.37;;;4.80;;
69534;SDS011;56754;51.568;5.048;2023-12-07T01:35:39;8.97;;;4.77;;
69534;SDS011;56754;51.568;5.048;2023-12-07T01:38:04;9.40;;;4.77;;
69534;SDS011;56754;51.568;5.048;2023-12-07T01:40:29;7.50;;;4.33;;
69534;SDS011;56754;51.568;5.048;2023-12-07T01:42:55;9.67;;;4.83;;
69534;SDS011;56754;51.568;5.048;2023-12-07T01:45:20;8.67;;;4.87;;
69534;SDS011;56754;51.568;5.048;2023-12-07T01:47:46;8.88;;;4.40;;
69534;SDS011;56754;51.568;5.048;2023-12-07T01:50:13;8.77;;;4.73;;
69534;SDS011;56754;51.568;5.048;2023-12-07T01:52:39;8.32;;;4.50;;
69534;SDS011;56754;51.568;5.048;2023-12-07T01:55:09;10.02;;;5.25;;
69534;SDS011;56754;51.568;5.048;2023-12-07T01:57:36;10.00;;;4.87;;
69534;SDS011;56754;51.568;5.048;2023-12-07T02:00:02;8.85;;;4.82;;
69534;SDS011;56754;51.568;5.048;2023-12-07T02:02:28;9.60;;;4.97;;
69534;SDS011;56754;51.568;5.048;2023-12-07T02:04:54;11.73;;;5.70;;
69534;SDS011;56754;51.568;5.048;2023-12-07T02:07:19;12.20;;;6.40;;
69534;SDS011;56754;51.568;5.048;2023-12-07T02:09:44;13.88;;;6.80;;
69534;SDS011;56754;51.568;5.048;2023-12-07T02:12:10;13.88;;;6.82;;
69534;SDS011;56754;51.568;5.048;2023-12-07T02:14:36;13.87;;;7.03;;
69534;SDS011;56754;51.568;5.048;2023-12-07T02:17:03;14.87;;;6.97;;
69534;SDS011;56754;51.568;5.048;2023-12-07T02:19:55;15.10;;;7.45;;
69534;SDS011;56754;51.568;5.048;2023-12-07T02:22:27;15.55;;;7.00;;
69534;SDS011;56754;51.568;5.048;2023-12-07T02:25:03;14.37;;;7.40;;
69534;SDS011;56754;51.568;5.048;2023-12-07T02:27:40;15.57;;;7.43;;
69534;SDS011;56754;51.568;5.048;2023-12-07T02:30:07;14.32;;;7.15;;
69534;SDS011;56754;51.568;5.048;2023-12-07T02:32:35;13.23;;;6.82;;
69534;SDS011;56754;51.568;5.048;2023-12-07T02:35:01;13.82;;;7.30;;
69534;SDS011;56754;51.568;5.048;2023-12-07T02:37:28;14.30;;;7.17;;
69534;SDS011;56754;51.568;5.048;2023-12-07T02:39:58;13.10;;;7.10;;
69534;SDS011;56754;51.568;5.048;2023-12-07T02:42:23;12.30;;;6.40;;
69534;SDS011;56754;51.568;5.048;2023-12-07T02:44:52;12.13;;;6.88;;
69534;SDS011;56754;51.568;5.048;2023-12-07T02:47:18;12.45;;;6.72;;
69534;SDS011;56754;51.568;5.048;2023-12-07T02:49:43;14.03;;;6.77;;
69534;SDS011;56754;51.568;5.048;2023-12-07T02:52:09;13.00;;;6.93;;
69534;SDS011;56754;51.568;5.048;2023-12-07T02:54:34;14.27;;;7.03;;
69534;SDS011;56754;51.568;5.048;2023-12-07T02:56:59;13.97;;;7.10;;
69534;SDS011;56754;51.568;5.048;2023-12-07T02:59:24;13.17;;;6.73;;
69534;SDS011;56754;51.568;5.048;2023-12-07T03:01:50;11.63;;;6.00;;
69534;SDS011;56754;51.568;5.048;2023-12-07T03:04:15;13.20;;;6.70;;
69534;SDS011;56754;51.568;5.048;2023-12-07T03:06:40;12.53;;;6.60;;
69534;SDS011;56754;51.568;5.048;2023-12-07T03:09:05;12.87;;;6.90;;
69534;SDS011;56754;51.568;5.048;2023-12-07T03:11:31;12.77;;;7.00;;
69534;SDS011;56754;51.568;5.048;2023-12-07T03:13:56;11.97;;;7.00;;
69534;SDS011;56754;51.568;5.048;2023-12-07T03:16:21;11.33;;;6.13;;
69534;SDS011;56754;51.568;5.048;2023-12-07T03:18:47;10.93;;;6.50;;
69534;SDS011;56754;51.568;5.048;2023-12-07T03:21:12;9.90;;;5.73;;
69534;SDS011;56754;51.568;5.048;2023-12-07T03:23:37;10.40;;;6.20;;
69534;SDS011;56754;51.568;5.048;2023-12-07T03:26:02;10.87;;;5.93;;
69534;SDS011;56754;51.568;5.048;2023-12-07T03:28:28;10.30;;;6.13;;
69534;SDS011;56754;51.568;5.048;2023-12-07T03:30:53;11.13;;;5.40;;
69534;SDS011;56754;51.568;5.048;2023-12-07T03:33:18;11.10;;;6.07;;
69534;SDS011;56754;51.568;5.048;2023-12-07T03:35:44;10.47;;;5.70;;
69534;SDS011;56754;51.568;5.048;2023-12-07T03:38:09;9.33;;;5.03;;
69534;SDS011;56754;51.568;5.048;2023-12-07T03:40:34;9.80;;;5.40;;
69534;SDS011;56754;51.568;5.048;2023-12-07T03:43:00;9.17;;;5.43;;
69534;SDS011;56754;51.568;5.048;2023-12-07T03:45:25;10.93;;;5.53;;
69534;SDS011;56754;51.568;5.048;2023-12-07T03:47:50;9.23;;;4.90;;
69534;SDS011;56754;51.568;5.048;2023-12-07T03:50:15;9.57;;;5.00;;
69534;SDS011;56754;51.568;5.048;2023-12-07T03:52:41;9.43;;;5.10;;
69534;SDS011;56754;51.568;5.048;2023-12-07T03:55:06;10.23;;;5.20;;
69534;SDS011;56754;51.568;5.048;2023-12-07T03:57:32;9.82;;;5.13;;
69534;SDS011;56754;51.568;5.048;2023-12-07T03:59:57;8.93;;;4.90;;
69534;SDS011;56754;51.568;5.048;2023-12-07T04:02:25;9.68;;;5.20;;
69534;SDS011;56754;51.568;5.048;2023-12-07T04:04:50;8.80;;;4.97;;
69534;SDS011;56754;51.568;5.048;2023-12-07T04:07:16;9.67;;;5.30;;
69534;SDS011;56754;51.568;5.048;2023-12-07T04:09:41;9.23;;;5.00;;
69534;SDS011;56754;51.568;5.048;2023-12-07T04:12:06;9.00;;;4.40;;
69534;SDS011;56754;51.568;5.048;2023-12-07T04:14:32;8.43;;;4.68;;
69534;SDS011;56754;51.568;5.048;2023-12-07T04:16:57;8.83;;;4.70;;
69534;SDS011;56754;51.568;5.048;2023-12-07T04:19:22;8.93;;;4.63;;
69534;SDS011;56754;51.568;5.048;2023-12-07T04:21:48;8.37;;;4.37;;
69534;SDS011;56754;51.568;5.048;2023-12-07T04:24:13;7.87;;;4.20;;
69534;SDS011;56754;51.568;5.048;2023-12-07T04:26:38;8.83;;;4.97;;
69534;SDS011;56754;51.568;5.048;2023-12-07T04:29:03;8.77;;;4.80;;
69534;SDS011;56754;51.568;5.048;2023-12-07T04:31:29;7.73;;;4.03;;
69534;SDS011;56754;51.568;5.048;2023-12-07T04:33:55;8.18;;;4.40;;
69534;SDS011;56754;51.568;5.048;2023-12-07T04:36:20;8.00;;;4.30;;
69534;SDS011;56754;51.568;5.048;2023-12-07T04:38:46;8.50;;;4.60;;
69534;SDS011;56754;51.568;5.048;2023-12-07T04:41:11;8.80;;;4.70;;
69534;SDS011;56754;51.568;5.048;2023-12-07T04:43:36;8.60;;;4.43;;
69534;SDS011;56754;51.568;5.048;2023-12-07T04:46:01;8.20;;;4.30;;
69534;SDS011;56754;51.568;5.048;2023-12-07T04:48:27;7.37;;;4.33;;
69534;SDS011;56754;51.568;5.048;2023-12-07T04:50:52;8.67;;;4.07;;
69534;SDS011;56754;51.568;5.048;2023-12-07T04:53:17;7.70;;;4.13;;
69534;SDS011;56754;51.568;5.048;2023-12-07T04:55:43;7.43;;;4.00;;
69534;SDS011;56754;51.568;5.048;2023-12-07T04:58:08;7.43;;;3.90;;
69534;SDS011;56754;51.568;5.048;2023-12-07T05:00:33;8.03;;;3.97;;
69534;SDS011;56754;51.568;5.048;2023-12-07T05:02:58;7.97;;;4.35;;
69534;SDS011;56754;51.568;5.048;2023-12-07T05:05:24;7.53;;;4.13;;
69534;SDS011;56754;51.568;5.048;2023-12-07T05:07:49;7.87;;;4.30;;
69534;SDS011;56754;51.568;5.048;2023-12-07T05:10:14;7.47;;;4.03;;
69534;SDS011;56754;51.568;5.048;2023-12-07T05:12:39;7.90;;;4.20;;
69534;SDS011;56754;51.568;5.048;2023-12-07T05:15:05;7.57;;;3.93;;
69534;SDS011;56754;51.568;5.048;2023-12-07T05:17:31;7.95;;;4.20;;
69534;SDS011;56754;51.568;5.048;2023-12-07T05:19:56;7.80;;;4.27;;
69534;SDS011;56754;51.568;5.048;2023-12-07T05:22:21;7.37;;;3.77;;
69534;SDS011;56754;51.568;5.048;2023-12-07T05:24:47;8.00;;;4.33;;
69534;SDS011;56754;51.568;5.048;2023-12-07T05:27:12;7.83;;;4.23;;
69534;SDS011;56754;51.568;5.048;2023-12-07T05:29:37;7.05;;;3.80;;
69534;SDS011;56754;51.568;5.048;2023-12-07T05:32:02;6.93;;;3.80;;
69534;SDS011;56754;51.568;5.048;2023-12-07T05:34:28;7.27;;;3.80;;
69534;SDS011;56754;51.568;5.048;2023-12-07T05:36:53;6.67;;;3.30;;
69534;SDS011;56754;51.568;5.048;2023-12-07T05:39:18;7.03;;;3.80;;
69534;SDS011;56754;51.568;5.048;2023-12-07T05:41:44;7.23;;;3.50;;
69534;SDS011;56754;51.568;5.048;2023-12-07T05:44:09;7.37;;;3.80;;
69534;SDS011;56754;51.568;5.048;2023-12-07T05:46:37;7.40;;;4.15;;
69534;SDS011;56754;51.568;5.048;2023-12-07T05:49:03;7.77;;;3.90;;
69534;SDS011;56754;51.568;5.048;2023-12-07T05:51:28;7.07;;;3.57;;
69534;SDS011;56754;51.568;5.048;2023-12-07T05:53:53;7.15;;;3.55;;
69534;SDS011;56754;51.568;5.048;2023-12-07T05:56:19;7.87;;;4.10;;
69534;SDS011;56754;51.568;5.048;2023-12-07T05:58:44;7.63;;;4.00;;
69534;SDS011;56754;51.568;5.048;2023-12-07T06:01:10;8.88;;;4.38;;
69534;SDS011;56754;51.568;5.048;2023-12-07T06:03:35;7.50;;;3.93;;
69534;SDS011;56754;51.568;5.048;2023-12-07T06:06:00;8.07;;;4.23;;
69534;SDS011;56754;51.568;5.048;2023-12-07T06:08:26;8.23;;;4.30;;
69534;SDS011;56754;51.568;5.048;2023-12-07T06:10:54;8.23;;;4.13;;
69534;SDS011;56754;51.568;5.048;2023-12-07T06:13:19;9.48;;;4.82;;
69534;SDS011;56754;51.568;5.048;2023-12-07T06:15:45;9.50;;;4.30;;
69534;SDS011;56754;51.568;5.048;2023-12-07T06:18:10;8.73;;;4.70;;
69534;SDS011;56754;51.568;5.048;2023-12-07T06:20:35;8.73;;;4.57;;
69534;SDS011;56754;51.568;5.048;2023-12-07T06:23:00;9.60;;;4.70;;
69534;SDS011;56754;51.568;5.048;2023-12-07T06:25:26;8.43;;;4.28;;
69534;SDS011;56754;51.568;5.048;2023-12-07T06:27:51;9.30;;;4.13;;
69534;SDS011;56754;51.568;5.048;2023-12-07T06:30:16;9.60;;;4.80;;
69534;SDS011;56754;51.568;5.048;2023-12-07T06:32:42;9.60;;;5.13;;
69534;SDS011;56754;51.568;5.048;2023-12-07T06:35:07;10.37;;;5.03;;
69534;SDS011;56754;51.568;5.048;2023-12-07T06:37:33;10.43;;;5.10;;
69534;SDS011;56754;51.568;5.048;2023-12-07T06:39:58;10.00;;;5.00;;
69534;SDS011;56754;51.568;5.048;2023-12-07T06:42:24;9.80;;;5.00;;
69534;SDS011;56754;51.568;5.048;2023-12-07T06:44:49;9.33;;;4.90;;
69534;SDS011;56754;51.568;5.048;2023-12-07T06:47:14;10.83;;;5.27;;
69534;SDS011;56754;51.568;5.048;2023-12-07T06:49:40;10.87;;;5.13;;
69534;SDS011;56754;51.568;5.048;2023-12-07T06:52:06;10.00;;;5.10;;
69534;SDS011;56754;51.568;5.048;2023-12-07T06:54:31;10.77;;;5.20;;
69534;SDS011;56754;51.568;5.048;2023-12-07T06:56:57;10.23;;;5.10;;
69534;SDS011;56754;51.568;5.048;2023-12-07T06:59:22;11.50;;;5.47;;
69534;SDS011;56754;51.568;5.048;2023-12-07T07:01:47;11.87;;;5.77;;
69534;SDS011;56754;51.568;5.048;2023-12-07T07:04:12;12.60;;;6.00;;
69534;SDS011;56754;51.568;5.048;2023-12-07T07:06:39;11.13;;;5.40;;
69534;SDS011;56754;51.568;5.048;2023-12-07T07:09:06;11.45;;;5.57;;
69534;SDS011;56754;51.568;5.048;2023-12-07T07:11:32;12.27;;;5.93;;
69534;SDS011;56754;51.568;5.048;2023-12-07T07:13:57;11.57;;;5.70;;
69534;SDS011;56754;51.568;5.048;2023-12-07T07:16:22;12.07;;;5.60;;
69534;SDS011;56754;51.568;5.048;2023-12-07T07:18:48;12.40;;;5.90;;
69534;SDS011;56754;51.568;5.048;2023-12-07T07:21:13;12.20;;;6.17;;
69534;SDS011;56754;51.568;5.048;2023-12-07T07:23:38;12.07;;;5.78;;
69534;SDS011;56754;51.568;5.048;2023-12-07T07:26:04;12.13;;;5.70;;
69534;SDS011;56754;51.568;5.048;2023-12-07T07:28:29;10.53;;;5.10;;
69534;SDS011;56754;51.568;5.048;2023-12-07T07:30:54;11.03;;;5.47;;
69534;SDS011;56754;51.568;5.048;2023-12-07T07:33:19;10.67;;;5.33;;
69534;SDS011;56754;51.568;5.048;2023-12-07T07:35:45;11.60;;;5.73;;
69534;SDS011;56754;51.568;5.048;2023-12-07T07:38:10;10.97;;;5.47;;
69534;SDS011;56754;51.568;5.048;2023-12-07T07:40:36;12.35;;;5.97;;
69534;SDS011;56754;51.568;5.048;2023-12-07T07:43:01;12.30;;;5.57;;
69534;SDS011;56754;51.568;5.048;2023-12-07T07:45:26;12.13;;;6.23;;
69534;SDS011;56754;51.568;5.048;2023-12-07T07:47:51;11.90;;;5.87;;
69534;SDS011;56754;51.568;5.048;2023-12-07T07:50:17;12.17;;;5.90;;
69534;SDS011;56754;51.568;5.048;2023-12-07T07:52:43;11.02;;;5.70;;
69534;SDS011;56754;51.568;5.048;2023-12-07T07:55:09;11.30;;;5.57;;
69534;SDS011;56754;51.568;5.048;2023-12-07T07:57:35;11.52;;;5.70;;
69534;SDS011;56754;51.568;5.048;2023-12-07T08:00:00;11.63;;;5.70;;
69534;SDS011;56754;51.568;5.048;2023-12-07T08:02:25;10.93;;;5.80;;
69534;SDS011;56754;51.568;5.048;2023-12-07T08:04:51;12.37;;;6.10;;
69534;SDS011;56754;51.568;5.048;2023-12-07T08:07:16;13.73;;;6.20;;
69534;SDS011;56754;51.568;5.048;2023-12-07T08:09:42;11.80;;;5.93;;
69534;SDS011;56754;51.568;5.048;2023-12-07T08:12:07;11.10;;;5.90;;
69534;SDS011;56754;51.568;5.048;2023-12-07T08:14:33;12.30;;;6.57;;
69534;SDS011;56754;51.568;5.048;2023-12-07T08:17:00;13.33;;;6.30;;
69534;SDS011;56754;51.568;5.048;2023-12-07T08:19:26;11.87;;;6.33;;
69534;SDS011;56754;51.568;5.048;2023-12-07T08:21:51;14.43;;;7.17;;
69534;SDS011;56754;51.568;5.048;2023-12-07T08:24:16;13.80;;;6.60;;
69534;SDS011;56754;51.568;5.048;2023-12-07T08:26:41;13.37;;;6.60;;
69534;SDS011;56754;51.568;5.048;2023-12-07T08:29:07;13.37;;;6.70;;
69534;SDS011;56754;51.568;5.048;2023-12-07T08:31:32;13.00;;;6.30;;
69534;SDS011;56754;51.568;5.048;2023-12-07T08:33:57;11.03;;;5.70;;
69534;SDS011;56754;51.568;5.048;2023-12-07T08:36:23;12.00;;;5.97;;
69534;SDS011;56754;51.568;5.048;2023-12-07T08:38:48;12.50;;;6.53;;
69534;SDS011;56754;51.568;5.048;2023-12-07T08:41:13;12.98;;;6.57;;
69534;SDS011;56754;51.568;5.048;2023-12-07T08:43:38;13.23;;;6.27;;
69534;SDS011;56754;51.568;5.048;2023-12-07T08:46:04;13.10;;;6.57;;
69534;SDS011;56754;51.568;5.048;2023-12-07T08:48:30;12.90;;;6.70;;
69534;SDS011;56754;51.568;5.048;2023-12-07T08:50:57;13.35;;;6.97;;
69534;SDS011;56754;51.568;5.048;2023-12-07T08:53:22;12.40;;;6.40;;
69534;SDS011;56754;51.568;5.048;2023-12-07T08:55:48;12.13;;;6.50;;
69534;SDS011;56754;51.568;5.048;2023-12-07T08:58:13;13.67;;;6.70;;
69534;SDS011;56754;51.568;5.048;2023-12-07T09:00:38;12.93;;;7.00;;
69534;SDS011;56754;51.568;5.048;2023-12-07T09:03:03;11.80;;;6.15;;
69534;SDS011;56754;51.568;5.048;2023-12-07T09:05:29;12.67;;;6.40;;
69534;SDS011;56754;51.568;5.048;2023-12-07T09:07:54;12.50;;;6.80;;
69534;SDS011;56754;51.568;5.048;2023-12-07T09:10:20;13.17;;;6.73;;
69534;SDS011;56754;51.568;5.048;2023-12-07T09:12:45;13.17;;;7.37;;
69534;SDS011;56754;51.568;5.048;2023-12-07T09:15:11;12.25;;;6.85;;
69534;SDS011;56754;51.568;5.048;2023-12-07T09:17:37;13.17;;;7.17;;
69534;SDS011;56754;51.568;5.048;2023-12-07T09:20:09;12.93;;;6.20;;
69534;SDS011;56754;51.568;5.048;2023-12-07T09:22:36;11.40;;;6.40;;
69534;SDS011;56754;51.568;5.048;2023-12-07T09:25:01;11.20;;;5.90;;
69534;SDS011;56754;51.568;5.048;2023-12-07T09:27:26;11.67;;;5.93;;
69534;SDS011;56754;51.568;5.048;2023-12-07T09:29:52;11.67;;;6.33;;
69534;SDS011;56754;51.568;5.048;2023-12-07T09:32:17;11.33;;;6.33;;
69534;SDS011;56754;51.568;5.048;2023-12-07T09:34:42;11.87;;;6.53;;
69534;SDS011;56754;51.568;5.048;2023-12-07T09:37:08;13.03;;;6.37;;
69534;SDS011;56754;51.568;5.048;2023-12-07T09:39:34;11.63;;;6.63;;
69534;SDS011;56754;51.568;5.048;2023-12-07T09:41:59;13.53;;;6.87;;
69534;SDS011;56754;51.568;5.048;2023-12-07T09:44:26;11.15;;;6.28;;
69534;SDS011;56754;51.568;5.048;2023-12-07T09:46:52;11.25;;;7.07;;
69534;SDS011;56754;51.568;5.048;2023-12-07T09:49:17;16.83;;;7.57;;
69534;SDS011;56754;51.568;5.048;2023-12-07T09:51:43;13.80;;;7.40;;
69534;SDS011;56754;51.568;5.048;2023-12-07T09:54:10;12.32;;;6.82;;
69534;SDS011;56754;51.568;5.048;2023-12-07T09:56:36;11.57;;;5.83;;
69534;SDS011;56754;51.568;5.048;2023-12-07T09:59:01;13.00;;;6.77;;
69534;SDS011;56754;51.568;5.048;2023-12-07T10:01:30;12.93;;;6.50;;
69534;SDS011;56754;51.568;5.048;2023-12-07T10:06:46;10.90;;;6.22;;
69534;SDS011;56754;51.568;5.048;2023-12-07T10:09:12;11.70;;;6.27;;
69534;SDS011;56754;51.568;5.048;2023-12-07T10:11:38;12.43;;;6.50;;
69534;SDS011;56754;51.568;5.048;2023-12-07T10:14:04;10.83;;;6.40;;
69534;SDS011;56754;51.568;5.048;2023-12-07T10:16:31;11.38;;;6.22;;
69534;SDS011;56754;51.568;5.048;2023-12-07T10:18:56;11.53;;;6.37;;
69534;SDS011;56754;51.568;5.048;2023-12-07T10:21:33;13.70;;;6.83;;
69534;SDS011;56754;51.568;5.048;2023-12-07T10:23:58;12.45;;;6.70;;
69534;SDS011;56754;51.568;5.048;2023-12-07T10:26:24;15.03;;;5.73;;
69534;SDS011;56754;51.568;5.048;2023-12-07T10:28:49;11.17;;;5.83;;
69534;SDS011;56754;51.568;5.048;2023-12-07T10:31:17;10.65;;;6.10;;
69534;SDS011;56754;51.568;5.048;2023-12-07T10:33:47;13.13;;;6.30;;
69534;SDS011;56754;51.568;5.048;2023-12-07T10:36:15;11.18;;;5.40;;
69534;SDS011;56754;51.568;5.048;2023-12-07T10:38:40;10.87;;;6.20;;
69534;SDS011;56754;51.568;5.048;2023-12-07T10:41:06;11.13;;;6.00;;
69534;SDS011;56754;51.568;5.048;2023-12-07T10:43:36;9.98;;;5.80;;
69534;SDS011;56754;51.568;5.048;2023-12-07T10:46:03;12.45;;;5.55;;
69534;SDS011;56754;51.568;5.048;2023-12-07T10:48:33;11.67;;;5.90;;
69534;SDS011;56754;51.568;5.048;2023-12-07T10:51:00;11.18;;;5.82;;
69534;SDS011;56754;51.568;5.048;2023-12-07T10:53:37;9.98;;;5.43;;
69534;SDS011;56754;51.568;5.048;2023-12-07T10:56:06;10.13;;;5.35;;
69534;SDS011;56754;51.568;5.048;2023-12-07T10:58:35;10.95;;;5.40;;
69534;SDS011;56754;51.568;5.048;2023-12-07T11:01:01;11.53;;;5.53;;
69534;SDS011;56754;51.568;5.048;2023-12-07T11:03:26;10.50;;;5.43;;
69534;SDS011;56754;51.568;5.048;2023-12-07T11:05:53;10.55;;;4.80;;
69534;SDS011;56754;51.568;5.048;2023-12-07T11:14:03;11.23;;;5.53;;
69534;SDS011;56754;51.568;5.048;2023-12-07T11:16:40;10.90;;;5.43;;
69534;SDS011;56754;51.568;5.048;2023-12-07T11:21:56;10.50;;;4.95;;
69534;SDS011;56754;51.568;5.048;2023-12-07T11:24:23;10.53;;;5.50;;
69534;SDS011;56754;51.568;5.048;2023-12-07T11:26:49;8.90;;;4.80;;
69534;SDS011;56754;51.568;5.048;2023-12-07T11:29:19;8.98;;;4.57;;
69534;SDS011;56754;51.568;5.048;2023-12-07T11:31:45;12.20;;;5.40;;
69534;SDS011;56754;51.568;5.048;2023-12-07T11:34:11;9.13;;;4.93;;
69534;SDS011;56754;51.568;5.048;2023-12-07T11:36:36;9.50;;;4.60;;
69534;SDS011;56754;51.568;5.048;2023-12-07T11:41:33;9.10;;;5.30;;
69534;SDS011;56754;51.568;5.048;2023-12-07T11:43:59;9.52;;;5.35;;
69534;SDS011;56754;51.568;5.048;2023-12-07T11:46:25;8.80;;;4.53;;
69534;SDS011;56754;51.568;5.048;2023-12-07T11:48:50;8.90;;;4.53;;
69534;SDS011;56754;51.568;5.048;2023-12-07T11:51:16;9.40;;;4.90;;
69534;SDS011;56754;51.568;5.048;2023-12-07T11:53:41;8.43;;;4.50;;
69534;SDS011;56754;51.568;5.048;2023-12-07T11:56:07;10.10;;;4.67;;
69534;SDS011;56754;51.568;5.048;2023-12-07T11:58:34;9.23;;;5.07;;
69534;SDS011;56754;51.568;5.048;2023-12-07T12:01:01;10.30;;;4.75;;
69534;SDS011;56754;51.568;5.048;2023-12-07T12:03:27;9.70;;;4.68;;
69534;SDS011;56754;51.568;5.048;2023-12-07T12:05:53;10.10;;;4.78;;
69534;SDS011;56754;51.568;5.048;2023-12-07T12:08:19;9.53;;;4.47;;
69534;SDS011;56754;51.568;5.048;2023-12-07T12:10:44;9.30;;;4.47;;
69534;SDS011;56754;51.568;5.048;2023-12-07T12:13:11;9.50;;;4.63;;
69534;SDS011;56754;51.568;5.048;2023-12-07T12:15:39;7.80;;;4.47;;
69534;SDS011;56754;51.568;5.048;2023-12-07T12:18:05;8.60;;;4.10;;
69534;SDS011;56754;51.568;5.048;2023-12-07T12:20:31;8.07;;;4.55;;
69534;SDS011;56754;51.568;5.048;2023-12-07T12:22:56;8.93;;;4.67;;
69534;SDS011;56754;51.568;5.048;2023-12-07T12:25:31;10.90;;;4.47;;
69534;SDS011;56754;51.568;5.048;2023-12-07T12:28:01;9.60;;;4.22;;
69534;SDS011;56754;51.568;5.048;2023-12-07T12:30:28;8.15;;;4.18;;
69534;SDS011;56754;51.568;5.048;2023-12-07T12:32:54;11.80;;;4.30;;
69534;SDS011;56754;51.568;5.048;2023-12-07T12:35:20;8.70;;;4.13;;
69534;SDS011;56754;51.568;5.048;2023-12-07T12:37:46;9.80;;;4.90;;
69534;SDS011;56754;51.568;5.048;2023-12-07T12:40:13;8.77;;;4.53;;
69534;SDS011;56754;51.568;5.048;2023-12-07T12:42:40;9.57;;;4.57;;
69534;SDS011;56754;51.568;5.048;2023-12-07T12:45:07;8.65;;;4.32;;
69534;SDS011;56754;51.568;5.048;2023-12-07T12:47:33;7.03;;;3.70;;
69534;SDS011;56754;51.568;5.048;2023-12-07T12:49:59;10.80;;;4.20;;
69534;SDS011;56754;51.568;5.048;2023-12-07T12:52:24;9.37;;;4.50;;
69534;SDS011;56754;51.568;5.048;2023-12-07T12:54:49;8.07;;;3.87;;
69534;SDS011;56754;51.568;5.048;2023-12-07T12:57:14;9.97;;;4.10;;
69534;SDS011;56754;51.568;5.048;2023-12-07T12:59:40;8.27;;;4.00;;
69534;SDS011;56754;51.568;5.048;2023-12-07T13:02:05;9.40;;;4.07;;
69534;SDS011;56754;51.568;5.048;2023-12-07T13:04:30;8.60;;;4.10;;
69534;SDS011;56754;51.568;5.048;2023-12-07T13:06:56;9.60;;;4.10;;
69534;SDS011;56754;51.568;5.048;2023-12-07T13:09:21;6.30;;;3.37;;
69534;SDS011;56754;51.568;5.048;2023-12-07T13:11:47;8.95;;;4.05;;
69534;SDS011;56754;51.568;5.048;2023-12-07T13:14:12;8.00;;;4.17;;
69534;SDS011;56754;51.568;5.048;2023-12-07T13:16:38;10.70;;;4.53;;
69534;SDS011;56754;51.568;5.048;2023-12-07T13:19:03;7.30;;;3.67;;
69534;SDS011;56754;51.568;5.048;2023-12-07T13:21:28;8.73;;;4.13;;
69534;SDS011;56754;51.568;5.048;2023-12-07T13:23:54;8.43;;;4.13;;
69534;SDS011;56754;51.568;5.048;2023-12-07T13:26:19;7.13;;;3.47;;
69534;SDS011;56754;51.568;5.048;2023-12-07T13:28:46;7.22;;;3.88;;
69534;SDS011;56754;51.568;5.048;2023-12-07T13:31:11;7.43;;;3.70;;
69534;SDS011;56754;51.568;5.048;2023-12-07T13:33:39;9.00;;;3.90;;
69534;SDS011;56754;51.568;5.048;2023-12-07T13:36:05;7.57;;;3.90;;
69534;SDS011;56754;51.568;5.048;2023-12-07T13:38:31;6.60;;;3.57;;
69534;SDS011;56754;51.568;5.048;2023-12-07T13:40:57;7.35;;;3.78;;
69534;SDS011;56754;51.568;5.048;2023-12-07T13:43:22;8.37;;;4.00;;
69534;SDS011;56754;51.568;5.048;2023-12-07T13:45:47;8.13;;;3.70;;
69534;SDS011;56754;51.568;5.048;2023-12-07T13:48:13;8.50;;;3.83;;
69534;SDS011;56754;51.568;5.048;2023-12-07T13:50:38;9.17;;;3.73;;
69534;SDS011;56754;51.568;5.048;2023-12-07T13:53:04;7.07;;;3.95;;
69534;SDS011;56754;51.568;5.048;2023-12-07T13:55:29;7.63;;;3.87;;
69534;SDS011;56754;51.568;5.048;2023-12-07T13:57:54;8.17;;;3.97;;
69534;SDS011;56754;51.568;5.048;2023-12-07T14:00:20;9.70;;;3.80;;
69534;SDS011;56754;51.568;5.048;2023-12-07T14:02:45;6.93;;;3.50;;
69534;SDS011;56754;51.568;5.048;2023-12-07T14:05:11;8.45;;;3.83;;
69534;SDS011;56754;51.568;5.048;2023-12-07T14:07:36;6.10;;;3.37;;
69534;SDS011;56754;51.568;5.048;2023-12-07T14:10:01;7.77;;;3.50;;
69534;SDS011;56754;51.568;5.048;2023-12-07T14:12:27;7.87;;;3.80;;
69534;SDS011;56754;51.568;5.048;2023-12-07T14:14:52;7.77;;;4.10;;
69534;SDS011;56754;51.568;5.048;2023-12-07T14:17:17;8.00;;;3.90;;
69534;SDS011;56754;51.568;5.048;2023-12-07T14:19:47;8.47;;;3.93;;
69534;SDS011;56754;51.568;5.048;2023-12-07T14:22:12;7.75;;;3.70;;
69534;SDS011;56754;51.568;5.048;2023-12-07T14:24:38;9.33;;;4.03;;
69534;SDS011;56754;51.568;5.048;2023-12-07T14:27:03;7.93;;;4.10;;
69534;SDS011;56754;51.568;5.048;2023-12-07T14:29:30;8.68;;;4.30;;
69534;SDS011;56754;51.568;5.048;2023-12-07T14:31:56;11.30;;;4.10;;
69534;SDS011;56754;51.568;5.048;2023-12-07T14:34:21;10.03;;;4.67;;
69534;SDS011;56754;51.568;5.048;2023-12-07T14:36:46;7.67;;;4.10;;
69534;SDS011;56754;51.568;5.048;2023-12-07T14:39:12;8.63;;;4.43;;
69534;SDS011;56754;51.568;5.048;2023-12-07T14:41:38;8.57;;;4.60;;
69534;SDS011;56754;51.568;5.048;2023-12-07T14:44:03;10.80;;;4.70;;
69534;SDS011;56754;51.568;5.048;2023-12-07T14:46:29;8.43;;;4.05;;